createdAt,value
2018-06-05T00:01:33.690Z,15.90
2018-06-05T00:04:03.481Z,15.50
2018-06-05T00:06:31.734Z,17.47
2018-06-05T00:08:59.798Z,14.73
2018-06-05T00:11:27.928Z,17.60
2018-06-05T00:13:57.482Z,16.57
2018-06-05T00:16:27.436Z,16.10
2018-06-05T00:18:56.641Z,18.00
2018-06-05T00:21:25.696Z,17.60
2018-06-05T00:23:55.396Z,16.40
2018-06-05T00:26:25.792Z,18.50
2018-06-05T00:28:55.117Z,16.90
2018-06-05T00:31:24.176Z,16.87
2018-06-05T00:33:53.252Z,15.90
2018-06-05T00:36:23.274Z,16.30
2018-06-05T00:38:52.203Z,18.13
2018-06-05T00:41:21.400Z,16.87
2018-06-05T00:43:50.669Z,17.40
2018-06-05T00:46:21.134Z,17.60
2018-06-05T00:48:52.983Z,17.37
2018-06-05T00:51:27.440Z,17.03
2018-06-05T00:53:58.191Z,19.57
2018-06-05T00:56:30.395Z,16.30
2018-06-05T00:58:59.814Z,16.33
2018-06-05T01:01:29.351Z,17.87
2018-06-05T01:03:59.490Z,17.50
2018-06-05T01:06:29.420Z,17.53
2018-06-05T01:08:57.510Z,17.40
2018-06-05T01:11:26.746Z,18.37
2018-06-05T01:13:56.502Z,16.80
2018-06-05T01:16:26.534Z,17.40
2018-06-05T01:18:55.842Z,17.13
2018-06-05T01:21:27.494Z,17.40
2018-06-05T01:23:57.110Z,17.17
2018-06-05T01:26:28.508Z,20.00
2018-06-05T01:28:59.287Z,18.60
2018-06-05T01:31:28.836Z,19.50
2018-06-05T01:33:59.133Z,18.57
2018-06-05T01:36:28.486Z,18.00
2018-06-05T01:38:58.216Z,19.40
2018-06-05T01:41:26.966Z,18.07
2018-06-05T01:43:59.018Z,19.80
2018-06-05T01:46:30.026Z,18.83
2018-06-05T01:49:02.369Z,19.20
2018-06-05T01:51:34.414Z,18.13
2018-06-05T01:54:09.343Z,19.20
2018-06-05T01:56:42.105Z,19.93
2018-06-05T01:59:14.832Z,19.27
2018-06-05T02:01:46.633Z,19.13
2018-06-05T02:04:18.069Z,20.33
2018-06-05T02:06:47.591Z,18.23
2018-06-05T02:09:18.142Z,17.50
2018-06-05T02:11:48.193Z,17.87
2018-06-05T02:14:18.893Z,19.10
2018-06-05T02:16:50.865Z,17.50
2018-06-05T02:19:21.936Z,18.70
2018-06-05T02:21:51.269Z,17.53
2018-06-05T02:24:22.104Z,17.83
2018-06-05T02:26:52.257Z,17.10
2018-06-05T02:29:22.982Z,18.67
2018-06-05T02:31:52.245Z,16.97
2018-06-05T02:34:22.183Z,17.53
2018-06-05T02:36:52.163Z,17.73
2018-06-05T02:39:26.286Z,16.53
2018-06-05T02:51:35.726Z,13.37
2018-06-05T02:54:07.098Z,13.30
2018-06-05T03:06:18.249Z,12.13
2018-06-05T03:08:47.050Z,12.80
2018-06-05T03:11:16.228Z,14.53
2018-06-05T03:13:44.599Z,13.30
2018-06-05T03:16:15.282Z,13.30
2018-06-05T03:18:45.954Z,13.57
2018-06-05T03:21:17.582Z,13.30
2018-06-05T03:23:47.262Z,12.83
2018-06-05T03:26:17.544Z,13.33
2018-06-05T03:28:49.003Z,12.73
2018-06-05T03:31:20.158Z,13.70
2018-06-05T03:33:50.689Z,14.13
2018-06-05T03:36:22.284Z,14.57
2018-06-05T03:38:53.818Z,12.90
2018-06-05T03:41:23.786Z,13.20
2018-06-05T03:43:53.350Z,13.77
2018-06-05T03:46:24.834Z,13.00
2018-06-05T03:48:54.377Z,13.90
2018-06-05T03:51:23.599Z,14.47
2018-06-05T03:53:54.025Z,14.90
2018-06-05T03:56:29.171Z,14.63
2018-06-05T03:58:59.885Z,14.33
2018-06-05T04:01:29.940Z,14.53
2018-06-05T04:04:01.922Z,13.93
2018-06-05T04:06:34.412Z,14.00
2018-06-05T04:09:04.946Z,14.47
2018-06-05T04:11:33.869Z,14.20
2018-06-05T04:14:03.984Z,15.93
2018-06-05T04:16:37.659Z,15.83
2018-06-05T04:19:10.704Z,15.53
2018-06-05T04:21:42.634Z,13.77
2018-06-05T04:24:15.424Z,16.70
2018-06-05T04:26:48.569Z,15.10
2018-06-05T04:29:21.236Z,15.00
2018-06-05T04:31:54.154Z,13.20
2018-06-05T04:34:26.838Z,14.27
2018-06-05T04:36:57.104Z,14.30
2018-06-05T04:55:39.183Z,12.93
2018-06-05T04:58:12.227Z,14.43
2018-06-05T05:00:44.622Z,14.90
2018-06-05T05:03:16.596Z,14.90
2018-06-05T05:05:49.412Z,14.13
2018-06-05T05:08:21.767Z,13.50
2018-06-05T05:10:53.665Z,14.87
2018-06-05T05:13:26.956Z,14.83
2018-06-05T05:32:07.627Z,14.23
2018-06-05T05:34:41.574Z,16.47
2018-06-05T05:37:16.098Z,15.00
2018-06-05T05:39:46.074Z,15.40
2018-06-05T05:42:17.903Z,15.87
2018-06-05T05:44:52.910Z,15.97
2018-06-05T05:47:25.018Z,15.90
2018-06-05T05:49:57.385Z,16.57
2018-06-05T05:52:29.476Z,15.83
2018-06-05T05:55:00.167Z,15.63
2018-06-05T05:57:32.807Z,16.70
2018-06-05T06:00:04.598Z,15.40
2018-06-05T06:02:35.737Z,15.73
2018-06-05T06:05:07.284Z,16.43
2018-06-05T06:07:39.393Z,15.13
2018-06-05T06:10:12.714Z,14.77
2018-06-05T06:12:46.933Z,15.90
2018-06-05T06:15:19.961Z,16.60
2018-06-05T06:17:51.736Z,13.90
2018-06-05T06:20:24.377Z,17.13
2018-06-05T06:22:56.038Z,16.57
2018-06-05T06:25:29.759Z,17.53
2018-06-05T06:28:01.238Z,17.10
2018-06-05T06:30:34.492Z,16.93
2018-06-05T06:33:06.304Z,15.30
2018-06-05T06:35:40.573Z,16.50
2018-06-05T06:38:13.051Z,15.97
2018-06-05T06:40:44.205Z,15.33
2018-06-05T06:43:17.401Z,16.97
2018-06-05T06:45:49.019Z,15.50
2018-06-05T06:48:24.149Z,17.00
2018-06-05T06:50:54.799Z,17.47
2018-06-05T06:53:26.108Z,16.43
2018-06-05T06:55:58.712Z,15.57
2018-06-05T06:58:29.466Z,16.47
2018-06-05T07:01:03.689Z,17.47
2018-06-05T07:03:34.023Z,16.13
2018-06-05T07:06:05.139Z,16.93
2018-06-05T07:08:37.445Z,16.07
2018-06-05T07:11:12.211Z,14.80
2018-06-05T07:13:44.085Z,15.30
2018-06-05T07:16:15.671Z,15.47
2018-06-05T07:18:47.945Z,14.57
2018-06-05T07:21:27.720Z,16.03
2018-06-05T07:36:57.636Z,14.80
2018-06-05T07:39:30.055Z,15.20
2018-06-05T07:42:01.603Z,14.20
2018-06-05T07:44:32.890Z,18.30
2018-06-05T07:47:08.160Z,15.97
2018-06-05T07:49:40.184Z,16.43
2018-06-05T07:52:11.122Z,15.37
2018-06-05T07:54:41.977Z,14.00
2018-06-05T07:57:14.963Z,15.67
2018-06-05T08:12:47.523Z,13.13
2018-06-05T08:15:21.652Z,14.70
2018-06-05T08:17:55.051Z,15.03
2018-06-05T08:20:27.344Z,17.27
2018-06-05T08:23:00.057Z,15.50
2018-06-05T08:25:32.203Z,14.70
2018-06-05T08:28:03.211Z,13.90
2018-06-05T08:30:34.104Z,14.77
2018-06-05T08:33:06.715Z,15.10
2018-06-05T08:35:39.818Z,16.10
2018-06-05T08:38:12.066Z,14.23
2018-06-05T08:40:43.989Z,14.57
2018-06-05T08:43:15.323Z,14.90
2018-06-05T08:45:49.753Z,13.93
2018-06-05T08:48:25.265Z,14.47
2018-06-05T08:51:00.139Z,14.40
2018-06-05T08:53:33.356Z,13.13
2018-06-05T08:56:07.454Z,12.50
2018-06-05T08:58:39.392Z,11.57
2018-06-05T09:01:16.246Z,11.90
2018-06-05T09:16:47.050Z,12.00
2018-06-05T09:19:17.606Z,11.67
2018-06-05T09:21:50.724Z,13.47
2018-06-05T09:24:23.592Z,13.30
2018-06-05T09:26:54.747Z,14.00
2018-06-05T09:29:27.580Z,12.90
2018-06-05T09:31:59.555Z,12.20
2018-06-05T09:34:32.415Z,12.20
2018-06-05T09:37:04.411Z,12.60
2018-06-05T09:39:37.559Z,12.43
2018-06-05T09:42:10.024Z,13.60
2018-06-05T09:44:41.047Z,12.03
2018-06-05T10:00:08.915Z,11.23
2018-06-05T10:02:40.825Z,13.10
2018-06-05T10:05:15.724Z,13.07
2018-06-05T10:07:50.045Z,12.47
2018-06-05T10:10:21.773Z,13.20
2018-06-05T10:12:56.209Z,12.73
2018-06-05T10:15:28.968Z,12.50
2018-06-05T10:18:01.105Z,12.60
2018-06-05T10:20:35.476Z,13.20
2018-06-05T10:23:08.710Z,10.83
2018-06-05T10:25:41.896Z,13.20
2018-06-05T10:28:14.129Z,14.40
2018-06-05T10:30:46.543Z,14.83
2018-06-05T10:33:18.042Z,13.17
2018-06-05T10:35:51.923Z,13.67
2018-06-05T10:38:25.129Z,13.97
2018-06-05T10:40:57.070Z,14.80
2018-06-05T10:43:31.976Z,14.27
2018-06-05T10:46:05.126Z,14.70
2018-06-05T10:48:38.539Z,13.27
2018-06-05T10:51:17.299Z,13.47
2018-06-05T10:53:48.801Z,13.50
2018-06-05T10:56:23.202Z,14.00
2018-06-05T10:59:01.486Z,12.80
2018-06-05T11:01:35.054Z,14.00
2018-06-05T11:04:10.316Z,14.00
2018-06-05T11:06:43.244Z,12.90
2018-06-05T11:09:16.338Z,12.93
2018-06-05T11:11:48.988Z,11.50
2018-06-05T11:14:23.139Z,13.37
2018-06-05T11:42:58.333Z,11.50
2018-06-05T11:45:33.805Z,12.10
2018-06-05T11:48:10.609Z,11.73
2018-06-05T11:50:42.169Z,12.10
2018-06-05T11:53:13.300Z,12.20
2018-06-05T11:55:46.280Z,12.47
2018-06-05T11:58:21.037Z,12.13
2018-06-05T12:00:52.743Z,11.20
2018-06-05T12:03:24.199Z,10.90
2018-06-05T12:05:56.540Z,10.73
2018-06-05T12:08:29.272Z,10.60
2018-06-05T12:11:02.025Z,12.10
2018-06-05T12:13:32.622Z,11.10
2018-06-05T12:16:05.121Z,10.70
2018-06-05T12:18:40.881Z,10.13
2018-06-05T12:21:15.516Z,9.20
2018-06-05T12:23:46.322Z,10.37
2018-06-05T12:26:17.366Z,11.30
2018-06-05T12:28:49.699Z,10.30
2018-06-05T12:31:23.098Z,9.50
2018-06-05T12:33:57.628Z,10.50
2018-06-05T12:36:30.488Z,9.90
2018-06-05T12:39:02.084Z,9.40
2018-06-05T12:41:33.018Z,9.73
2018-06-05T12:44:03.671Z,10.23
2018-06-05T12:46:35.059Z,10.50
2018-06-05T12:49:08.926Z,10.80
2018-06-05T12:51:41.115Z,12.43
2018-06-05T12:54:12.622Z,11.17
2018-06-05T12:56:44.929Z,11.33
2018-06-05T12:59:16.928Z,9.27
2018-06-05T13:01:48.036Z,11.90
2018-06-05T13:04:19.083Z,12.00
2018-06-05T13:06:52.753Z,10.13
2018-06-05T13:09:24.721Z,11.10
2018-06-05T13:11:55.231Z,10.63
2018-06-05T13:14:26.960Z,8.87
2018-06-05T13:16:58.789Z,8.33
2018-06-05T13:19:29.858Z,7.17
2018-06-05T13:22:00.776Z,9.30
2018-06-05T13:24:33.575Z,7.50
2018-06-05T13:27:10.503Z,9.03
2018-06-05T13:29:44.396Z,10.63
2018-06-05T13:32:19.101Z,9.83
2018-06-05T13:34:51.522Z,8.10
2018-06-05T13:37:22.150Z,7.67
2018-06-05T13:39:56.918Z,9.47
2018-06-05T13:42:33.303Z,8.30
2018-06-05T13:45:07.267Z,9.47
2018-06-05T13:47:39.832Z,9.77
2018-06-05T13:50:15.228Z,9.17
2018-06-05T13:52:49.683Z,8.60
2018-06-05T13:55:24.238Z,8.40
2018-06-05T13:57:56.628Z,9.90
2018-06-05T14:00:28.610Z,9.90
2018-06-05T14:03:01.643Z,8.33
2018-06-05T14:05:34.626Z,8.80
2018-06-05T14:08:05.937Z,7.87
2018-06-05T14:10:37.841Z,8.93
2018-06-05T14:13:09.886Z,8.50
2018-06-05T14:15:40.323Z,8.23
2018-06-05T14:18:11.474Z,7.93
2018-06-05T14:20:45.410Z,8.20
2018-06-05T14:23:18.652Z,7.40
2018-06-05T14:25:51.483Z,8.80
2018-06-05T14:28:25.731Z,8.10
2018-06-05T14:57:26.437Z,7.47
2018-06-05T14:59:58.448Z,7.30
2018-06-05T15:02:32.101Z,7.17
2018-06-05T15:05:05.212Z,5.77
2018-06-05T15:07:37.309Z,7.27
2018-06-05T15:10:09.598Z,7.10
2018-06-05T15:12:41.268Z,7.77
2018-06-05T15:31:25.158Z,6.67
2018-06-05T15:33:55.223Z,7.40
2018-06-05T15:36:32.761Z,6.03
2018-06-05T15:39:06.186Z,7.07
2018-06-05T15:44:32.475Z,7.90
2018-06-05T15:47:01.471Z,8.27
2018-06-05T15:49:35.298Z,7.50
2018-06-05T15:52:08.869Z,8.03
2018-06-05T15:54:37.229Z,7.80
2018-06-05T15:57:08.451Z,8.30
2018-06-05T15:59:37.904Z,7.50
2018-06-05T16:14:57.298Z,7.43
2018-06-05T16:17:26.047Z,9.90
2018-06-05T16:19:55.556Z,10.40
2018-06-05T16:22:29.546Z,10.20
2018-06-05T16:37:48.710Z,11.00
2018-06-05T16:40:19.027Z,9.97
2018-06-05T16:42:54.082Z,10.80
2018-06-05T16:45:23.294Z,10.80
2018-06-05T16:47:53.450Z,11.80
2018-06-05T16:50:24.562Z,11.63
2018-06-05T16:53:00.149Z,11.30
2018-06-05T16:55:31.233Z,13.60
2018-06-05T16:58:00.422Z,12.23
2018-06-05T17:10:13.718Z,11.10
2018-06-05T17:22:23.937Z,13.50
2018-06-05T17:24:53.587Z,13.70
2018-06-05T17:27:23.378Z,13.17
2018-06-05T17:29:53.617Z,15.90
2018-06-05T17:32:28.178Z,14.17
2018-06-05T17:44:42.128Z,13.23
2018-06-05T17:59:54.303Z,14.37
2018-06-05T18:02:26.866Z,16.17
2018-06-05T18:07:38.495Z,13.80
2018-06-05T18:10:12.079Z,15.93
2018-06-05T18:12:46.776Z,13.60
2018-06-05T18:15:20.782Z,15.60
2018-06-05T18:17:58.623Z,15.63
2018-06-05T18:20:32.500Z,15.97
2018-06-05T18:23:15.714Z,14.97
2018-06-05T18:25:51.193Z,15.10
2018-06-05T18:31:10.472Z,15.13
2018-06-05T18:33:44.633Z,15.60
2018-06-05T18:36:23.096Z,13.50
2018-06-05T18:48:32.734Z,15.33
2018-06-05T18:51:08.127Z,14.97
2018-06-05T18:53:41.570Z,15.80
2018-06-05T19:11:47.136Z,16.13
2018-06-05T19:14:22.904Z,15.57
2018-06-05T19:16:54.141Z,15.70
2018-06-05T19:19:42.551Z,14.67
2018-06-05T19:32:01.806Z,15.13
2018-06-05T19:34:40.858Z,16.17
2018-06-05T19:50:06.368Z,13.63
2018-06-05T19:52:35.253Z,14.13
2018-06-05T19:55:04.329Z,14.17
2018-06-05T19:57:32.758Z,14.47
2018-06-05T20:00:01.513Z,13.40
2018-06-05T20:02:30.943Z,14.40
2018-06-05T20:04:59.368Z,16.07
2018-06-05T20:07:27.644Z,15.20
2018-06-05T20:09:56.107Z,15.50
2018-06-05T20:12:25.401Z,15.20
2018-06-05T20:14:54.648Z,16.23
2018-06-05T20:17:23.362Z,16.60
2018-06-05T20:19:51.905Z,15.07
2018-06-05T20:22:20.493Z,16.33
2018-06-05T20:24:48.977Z,16.40
2018-06-05T20:27:17.401Z,16.40
2018-06-05T20:29:45.873Z,16.80
2018-06-05T20:32:14.950Z,16.83
2018-06-05T20:34:43.476Z,15.87
2018-06-05T20:37:12.842Z,16.80
2018-06-05T20:39:42.966Z,17.27
2018-06-05T20:42:11.308Z,16.57
2018-06-05T20:44:41.137Z,16.33
2018-06-05T20:47:09.850Z,15.73
2018-06-05T20:49:38.277Z,16.50
2018-06-05T20:52:06.712Z,17.13
2018-06-05T20:54:35.068Z,17.17
2018-06-05T20:57:03.407Z,18.00
2018-06-05T20:59:31.864Z,17.00
2018-06-05T21:02:00.454Z,18.63
2018-06-05T21:04:29.149Z,18.60
2018-06-05T21:06:58.546Z,17.07
2018-06-05T21:09:27.101Z,19.00
2018-06-05T21:11:56.292Z,17.20
2018-06-05T21:14:24.865Z,17.97
2018-06-05T21:16:53.352Z,18.13
2018-06-05T21:19:21.714Z,18.77
2018-06-05T21:21:49.859Z,17.27
2018-06-05T21:24:18.218Z,18.63
2018-06-05T21:26:46.687Z,16.90
2018-06-05T21:29:14.936Z,16.77
2018-06-05T21:31:43.073Z,18.83
2018-06-05T21:34:11.266Z,19.07
2018-06-05T21:36:39.466Z,18.23
2018-06-05T21:39:08.152Z,16.27
2018-06-05T21:41:36.624Z,18.43
2018-06-05T21:44:04.753Z,15.23
2018-06-05T21:46:32.934Z,17.70
2018-06-05T21:49:01.068Z,16.10
2018-06-05T21:51:29.218Z,18.10
2018-06-05T21:53:57.378Z,16.63
2018-06-05T21:56:25.653Z,16.37
2018-06-05T21:58:53.652Z,15.33
2018-06-05T22:01:21.683Z,15.50
2018-06-05T22:03:49.672Z,15.73
2018-06-05T22:06:17.997Z,14.00
2018-06-05T22:08:46.849Z,13.50
2018-06-05T22:11:14.843Z,12.57
2018-06-05T22:13:42.849Z,12.60
2018-06-05T22:16:10.879Z,12.73
2018-06-05T22:18:38.891Z,13.00
2018-06-05T22:21:06.892Z,12.03
2018-06-05T22:23:34.922Z,12.53
2018-06-05T22:26:02.966Z,12.20
2018-06-05T22:28:30.996Z,12.17
2018-06-05T22:30:59.632Z,12.23
2018-06-05T22:33:28.569Z,10.90
2018-06-05T22:35:57.461Z,11.57
2018-06-05T22:38:25.520Z,12.20
2018-06-05T22:40:53.554Z,11.17
2018-06-05T22:43:21.602Z,11.50
2018-06-05T22:45:49.621Z,12.27
2018-06-05T22:48:17.640Z,11.87
2018-06-05T22:50:45.747Z,10.17
2018-06-05T22:53:13.766Z,12.10
2018-06-05T22:55:41.780Z,10.97
2018-06-05T22:58:10.314Z,11.83
2018-06-05T23:00:38.396Z,10.90
2018-06-05T23:03:06.410Z,10.50
2018-06-05T23:05:34.441Z,11.30
2018-06-05T23:08:02.505Z,11.00
2018-06-05T23:10:30.525Z,10.83
2018-06-05T23:12:58.550Z,10.27
2018-06-05T23:15:26.564Z,10.60
2018-06-05T23:17:54.553Z,9.53
2018-06-05T23:20:22.597Z,9.97
2018-06-05T23:22:50.639Z,11.10
2018-06-05T23:25:18.639Z,9.70
2018-06-05T23:27:46.968Z,10.60
2018-06-05T23:30:14.993Z,10.87
2018-06-05T23:32:43.205Z,11.27
2018-06-05T23:35:11.495Z,10.70
2018-06-05T23:37:39.655Z,11.00
2018-06-05T23:40:07.781Z,10.50
2018-06-05T23:42:35.789Z,10.77
2018-06-05T23:45:03.842Z,10.63
2018-06-05T23:47:32.231Z,9.40
2018-06-05T23:50:00.281Z,11.07
2018-06-05T23:52:28.313Z,10.90
2018-06-05T23:54:56.324Z,10.83
2018-06-05T23:57:24.330Z,10.40
2018-06-05T23:59:52.491Z,10.50
